createdAt,value
2022-12-01T00:00:11.713Z,99676.28
2022-12-01T00:02:38.283Z,99673.16
2022-12-01T00:05:05.054Z,99677.25
2022-12-01T00:07:31.510Z,99668.44
2022-12-01T00:09:57.998Z,99678.97
2022-12-01T00:12:24.338Z,99664.97
2022-12-01T00:14:50.914Z,99664.97
2022-12-01T00:17:17.325Z,99666.69
2022-12-01T00:19:43.730Z,99671.94
2022-12-01T00:22:10.122Z,99674.97
2022-12-01T00:24:36.552Z,99664.03
2022-12-01T00:27:03.063Z,99665.09
2022-12-01T00:29:29.518Z,99664.59
2022-12-01T00:31:58.529Z,99671.69
2022-12-01T00:34:25.134Z,99669.38
2022-12-01T00:36:51.677Z,99668.19
2022-12-01T00:39:18.175Z,99676.00
2022-12-01T00:41:44.745Z,99673.25
2022-12-01T00:44:11.457Z,99669.78
2022-12-01T00:46:37.955Z,99660.94
2022-12-01T00:49:04.671Z,99667.38
2022-12-01T00:51:31.133Z,99663.25
2022-12-01T00:53:57.541Z,99664.09
2022-12-01T00:56:24.137Z,99665.66
2022-12-01T00:58:50.536Z,99663.91
2022-12-01T01:01:17.179Z,99665.06
2022-12-01T01:03:43.671Z,99665.03
2022-12-01T01:06:11.175Z,99655.47
2022-12-01T01:08:37.566Z,99658.09
2022-12-01T01:11:04.973Z,99658.81
2022-12-01T01:13:34.023Z,99658.06
2022-12-01T01:16:00.469Z,99654.69
2022-12-01T01:18:27.010Z,99658.69
2022-12-01T01:20:53.501Z,99658.63
2022-12-01T01:23:19.900Z,99655.59
2022-12-01T01:25:46.229Z,99652.81
2022-12-01T01:28:12.636Z,99655.47
2022-12-01T01:30:39.288Z,99651.97
2022-12-01T01:33:05.772Z,99655.69
2022-12-01T01:35:32.365Z,99659.09
2022-12-01T01:37:59.207Z,99652.34
2022-12-01T01:40:25.642Z,99656.59
2022-12-01T01:42:52.035Z,99654.84
2022-12-01T01:45:18.369Z,99645.19
2022-12-01T01:47:44.702Z,99646.84
2022-12-01T01:50:11.092Z,99647.31
2022-12-01T01:52:37.709Z,99651.03
2022-12-01T01:55:05.101Z,99652.59
2022-12-01T01:57:31.907Z,99648.09
2022-12-01T01:59:58.399Z,99641.81
2022-12-01T02:02:25.299Z,99644.38
2022-12-01T02:04:51.693Z,99644.19
2022-12-01T02:07:18.135Z,99647.63
2022-12-01T02:09:44.651Z,99644.19
2022-12-01T02:12:11.258Z,99652.97
2022-12-01T02:14:38.346Z,99651.25
2022-12-01T02:17:04.977Z,99651.13
2022-12-01T02:19:31.768Z,99661.50
2022-12-01T02:22:00.331Z,99663.84
2022-12-01T02:24:26.900Z,99667.34
2022-12-01T02:26:53.388Z,99662.19
2022-12-01T02:29:20.113Z,99672.19
2022-12-01T02:31:46.537Z,99666.25
2022-12-01T02:34:13.365Z,99668.22
2022-12-01T02:36:39.963Z,99673.59
2022-12-01T02:39:06.532Z,99661.34
2022-12-01T02:41:34.117Z,99660.78
2022-12-01T02:44:00.608Z,99663.66
2022-12-01T02:46:27.095Z,99671.00
2022-12-01T02:48:53.677Z,99671.13
2022-12-01T02:51:20.273Z,99672.50
2022-12-01T02:53:46.763Z,99670.78
2022-12-01T02:56:13.496Z,99661.84
2022-12-01T02:58:39.948Z,99662.84
2022-12-01T03:01:06.328Z,99663.25
2022-12-01T03:03:33.017Z,99668.19
2022-12-01T03:05:59.367Z,99658.78
2022-12-01T03:08:26.863Z,99663.88
2022-12-01T03:10:53.259Z,99660.19
2022-12-01T03:13:19.753Z,99659.22
2022-12-01T03:15:46.100Z,99639.47
2022-12-01T03:18:14.166Z,99650.09
2022-12-01T03:20:40.531Z,99655.25
2022-12-01T03:23:07.391Z,99646.59
2022-12-01T03:25:33.778Z,99646.47
2022-12-01T03:30:48.725Z,99652.63
2022-12-01T03:33:15.315Z,99645.63
2022-12-01T03:35:41.910Z,99641.06
2022-12-01T03:38:08.395Z,99645.31
2022-12-01T03:40:34.790Z,99649.66
2022-12-01T03:43:02.479Z,99643.03
2022-12-01T03:45:28.896Z,99653.97
2022-12-01T03:47:55.301Z,99647.00
2022-12-01T03:50:21.764Z,99655.91
2022-12-01T03:52:48.269Z,99646.16
2022-12-01T03:55:14.642Z,99653.66
2022-12-01T03:57:41.138Z,99655.00
2022-12-01T04:00:07.621Z,99653.38
2022-12-01T04:02:34.185Z,99655.13
2022-12-01T04:05:00.817Z,99659.34
2022-12-01T04:07:27.311Z,99656.63
2022-12-01T04:09:53.883Z,99660.88
2022-12-01T04:12:20.375Z,99655.50
2022-12-01T04:14:46.783Z,99657.50
2022-12-01T04:17:13.281Z,99661.63
2022-12-01T04:19:39.692Z,99653.16
2022-12-01T04:22:06.028Z,99660.22
2022-12-01T04:24:32.427Z,99658.31
2022-12-01T04:26:58.898Z,99653.16
2022-12-01T04:29:25.294Z,99647.09
2022-12-01T04:31:51.846Z,99639.38
2022-12-01T04:34:18.407Z,99649.69
2022-12-01T04:36:44.883Z,99655.16
2022-12-01T04:39:11.315Z,99655.50
2022-12-01T04:41:37.846Z,99647.44
2022-12-01T04:44:04.422Z,99650.75
2022-12-01T04:46:30.924Z,99645.47
2022-12-01T04:48:57.369Z,99644.50
2022-12-01T04:51:23.804Z,99649.63
2022-12-01T04:53:50.258Z,99655.72
2022-12-01T04:56:16.586Z,99653.13
2022-12-01T04:58:42.995Z,99651.34
2022-12-01T05:01:09.454Z,99657.88
2022-12-01T05:03:36.015Z,99661.59
2022-12-01T05:06:02.614Z,99661.38
2022-12-01T05:08:29.232Z,99665.81
2022-12-01T05:10:55.730Z,99659.75
2022-12-01T05:13:22.193Z,99661.13
2022-12-01T05:15:48.821Z,99666.00
2022-12-01T05:18:15.307Z,99664.31
2022-12-01T05:20:41.832Z,99668.44
2022-12-01T05:23:10.776Z,99669.47
2022-12-01T05:25:40.026Z,99675.75
2022-12-01T05:28:06.437Z,99676.31
2022-12-01T05:30:32.997Z,99677.88
2022-12-01T05:32:59.413Z,99669.22
2022-12-01T05:35:25.767Z,99669.47
2022-12-01T05:37:52.243Z,99675.03
2022-12-01T05:40:18.861Z,99680.06
2022-12-01T05:42:45.224Z,99681.75
2022-12-01T05:45:11.667Z,99676.50
2022-12-01T05:47:38.087Z,99681.75
2022-12-01T05:50:05.964Z,99690.88
2022-12-01T05:52:32.676Z,99685.34
2022-12-01T05:54:59.008Z,99695.63
2022-12-01T05:57:25.399Z,99697.22
2022-12-01T05:59:51.876Z,99700.66
2022-12-01T06:02:18.421Z,99692.63
2022-12-01T06:04:45.161Z,99694.34
2022-12-01T06:07:11.507Z,99700.19
2022-12-01T06:09:37.927Z,99692.63
2022-12-01T06:12:05.021Z,99704.16
2022-12-01T06:14:31.492Z,99700.00
2022-12-01T06:16:57.957Z,99704.94
2022-12-01T06:19:24.735Z,99695.38
2022-12-01T06:21:51.193Z,99695.88
2022-12-01T06:24:17.552Z,99695.06
2022-12-01T06:26:43.907Z,99702.22
2022-12-01T06:29:10.776Z,99698.38
2022-12-01T06:31:37.292Z,99703.94
2022-12-01T06:34:03.757Z,99695.03
2022-12-01T06:36:30.126Z,99703.31
2022-12-01T06:38:56.641Z,99696.19
2022-12-01T06:41:23.036Z,99698.16
2022-12-01T06:43:51.734Z,99692.38
2022-12-01T06:46:18.135Z,99700.06
2022-12-01T06:48:44.620Z,99702.75
2022-12-01T06:51:11.154Z,99703.50
2022-12-01T06:53:37.845Z,99705.94
2022-12-01T06:56:04.273Z,99707.69
2022-12-01T06:58:30.983Z,99705.06
2022-12-01T07:00:57.819Z,99703.22
2022-12-01T07:03:24.269Z,99707.75
2022-12-01T07:05:51.007Z,99701.25
2022-12-01T07:08:17.503Z,99705.72
2022-12-01T07:10:44.227Z,99694.41
2022-12-01T07:13:10.592Z,99706.00
2022-12-01T07:15:37.451Z,99699.00
2022-12-01T07:18:03.884Z,99699.50
2022-12-01T07:20:30.526Z,99691.28
2022-12-01T07:22:56.971Z,99695.06
2022-12-01T07:25:23.392Z,99694.94
2022-12-01T07:27:49.742Z,99695.13
2022-12-01T07:30:16.126Z,99704.00
2022-12-01T07:32:42.726Z,99710.78
2022-12-01T07:35:09.097Z,99702.97
2022-12-01T07:37:35.608Z,99704.72
2022-12-01T07:40:02.028Z,99710.78
2022-12-01T07:42:28.358Z,99719.81
2022-12-01T07:44:54.749Z,99716.59
2022-12-01T07:47:21.115Z,99724.84
2022-12-01T07:49:47.793Z,99734.88
2022-12-01T07:52:14.507Z,99727.72
2022-12-01T07:54:40.888Z,99732.31
2022-12-01T07:57:07.406Z,99730.44
2022-12-01T07:59:33.922Z,99728.97
2022-12-01T08:02:00.491Z,99735.72
2022-12-01T08:04:27.102Z,99741.19
2022-12-01T08:06:53.429Z,99745.59
2022-12-01T08:09:19.781Z,99745.28
2022-12-01T08:11:46.260Z,99756.25
2022-12-01T08:14:12.713Z,99740.97
2022-12-01T08:16:39.263Z,99751.81
2022-12-01T08:19:05.937Z,99744.38
2022-12-01T08:21:32.783Z,99744.13
2022-12-01T08:23:59.142Z,99752.50
2022-12-01T08:26:25.573Z,99762.59
2022-12-01T08:28:52.061Z,99758.59
2022-12-01T08:31:18.830Z,99753.91
2022-12-01T08:33:45.259Z,99760.72
2022-12-01T08:36:11.998Z,99768.66
2022-12-01T08:38:38.397Z,99764.75
2022-12-01T08:41:04.912Z,99766.59
2022-12-01T08:43:56.608Z,99767.09
2022-12-01T08:46:18.755Z,99760.53
2022-12-01T08:48:45.244Z,99762.19
2022-12-01T08:51:12.004Z,99760.31
2022-12-01T08:53:44.003Z,99761.13
2022-12-01T08:56:11.881Z,99767.06
2022-12-01T08:58:38.296Z,99759.44
2022-12-01T09:01:04.688Z,99760.84
2022-12-01T09:03:31.120Z,99772.16
2022-12-01T09:05:57.591Z,99766.75
2022-12-01T09:08:24.098Z,99756.16
2022-12-01T09:10:50.493Z,99760.72
2022-12-01T09:13:16.964Z,99749.19
2022-12-01T09:15:43.461Z,99749.31
2022-12-01T09:18:09.871Z,99749.75
2022-12-01T09:20:36.322Z,99740.38
2022-12-01T09:23:02.801Z,99740.28
2022-12-01T09:25:29.167Z,99744.50
2022-12-01T09:27:55.574Z,99740.94
2022-12-01T09:30:22.110Z,99747.16
2022-12-01T09:32:48.735Z,99737.56
2022-12-01T09:35:16.888Z,99734.22
2022-12-01T09:37:46.230Z,99732.81
2022-12-01T09:40:12.606Z,99728.31
2022-12-01T09:42:38.997Z,99728.91
2022-12-01T09:45:05.432Z,99723.63
2022-12-01T09:47:31.799Z,99725.91
2022-12-01T09:49:58.194Z,99722.03
2022-12-01T09:52:24.724Z,99717.56
2022-12-01T09:54:51.460Z,99718.25
2022-12-01T09:57:17.890Z,99721.00
2022-12-01T09:59:44.272Z,99707.28
2022-12-01T10:02:10.763Z,99706.88
2022-12-01T10:04:37.300Z,99698.31
2022-12-01T10:07:03.684Z,99695.53
2022-12-01T10:09:30.082Z,99701.88
2022-12-01T10:11:56.592Z,99695.25
2022-12-01T10:14:25.294Z,99694.81
2022-12-01T10:16:51.694Z,99696.91
2022-12-01T10:19:18.645Z,99690.47
2022-12-01T10:21:45.982Z,99700.19
2022-12-01T10:24:12.466Z,99701.44
2022-12-01T10:26:38.934Z,99703.81
2022-12-01T10:29:05.354Z,99704.06
2022-12-01T10:31:32.256Z,99699.69
2022-12-01T10:33:58.706Z,99699.78
2022-12-01T10:36:28.595Z,99691.66
2022-12-01T10:38:59.403Z,99692.94
2022-12-01T10:41:25.777Z,99690.88
2022-12-01T10:43:52.353Z,99685.88
2022-12-01T10:46:18.802Z,99688.84
2022-12-01T10:48:45.254Z,99684.47
2022-12-01T10:51:11.678Z,99685.66
2022-12-01T10:53:38.082Z,99683.94
2022-12-01T10:56:04.510Z,99675.84
2022-12-01T10:58:31.007Z,99680.03
2022-12-01T11:00:59.967Z,99676.75
2022-12-01T11:03:27.144Z,99676.44
2022-12-01T11:05:53.938Z,99674.50
2022-12-01T11:08:20.433Z,99669.53
2022-12-01T11:10:46.798Z,99673.03
2022-12-01T11:13:13.241Z,99669.88
2022-12-01T11:15:39.655Z,99680.13
2022-12-01T11:18:06.045Z,99672.94
2022-12-01T11:20:32.529Z,99671.72
2022-12-01T11:22:59.075Z,99666.75
2022-12-01T11:25:25.450Z,99673.78
2022-12-01T11:27:51.848Z,99666.19
2022-12-01T11:30:18.682Z,99663.81
2022-12-01T11:32:45.105Z,99664.41
2022-12-01T11:35:11.611Z,99666.88
2022-12-01T11:37:38.068Z,99656.97
2022-12-01T11:40:04.713Z,99667.09
2022-12-01T11:42:31.054Z,99660.00
2022-12-01T11:44:57.515Z,99671.81
2022-12-01T11:47:24.846Z,99660.22
2022-12-01T11:49:52.547Z,99661.50
2022-12-01T11:52:19.462Z,99653.88
2022-12-01T11:54:45.969Z,99665.84
2022-12-01T11:57:33.174Z,99664.94
2022-12-01T11:59:59.247Z,99657.44
2022-12-01T12:02:25.885Z,99657.16
2022-12-01T12:04:54.962Z,99649.84
2022-12-01T12:07:21.689Z,99662.22
2022-12-01T12:09:48.374Z,99658.16
2022-12-01T12:12:14.995Z,99663.94
2022-12-01T12:14:41.572Z,99657.63
2022-12-01T12:17:08.023Z,99652.34
2022-12-01T12:20:00.096Z,99647.88
2022-12-01T12:22:21.481Z,99651.25
2022-12-01T12:24:47.954Z,99650.34
2022-12-01T12:27:14.701Z,99650.28
2022-12-01T12:29:43.296Z,99642.97
2022-12-01T12:32:09.804Z,99650.88
2022-12-01T12:34:36.285Z,99647.38
2022-12-01T12:37:02.757Z,99647.97
2022-12-01T12:39:29.199Z,99644.38
2022-12-01T12:41:58.387Z,99646.19
2022-12-01T12:44:24.742Z,99647.66
2022-12-01T12:46:51.222Z,99640.53
2022-12-01T12:49:20.162Z,99643.53
2022-12-01T12:51:47.250Z,99645.88
2022-12-01T12:54:13.725Z,99642.56
2022-12-01T12:56:40.225Z,99641.22
2022-12-01T12:59:06.617Z,99641.13
2022-12-01T13:01:33.187Z,99638.75
2022-12-01T13:03:59.593Z,99651.41
2022-12-01T13:06:26.233Z,99642.31
2022-12-01T13:08:52.867Z,99646.88
2022-12-01T13:11:20.231Z,99646.09
2022-12-01T13:13:46.603Z,99637.03
2022-12-01T13:16:13.104Z,99645.69
2022-12-01T13:18:39.607Z,99645.09
2022-12-01T13:21:06.195Z,99642.41
2022-12-01T13:23:32.613Z,99644.44
2022-12-01T13:25:59.365Z,99655.63
2022-12-01T13:28:25.815Z,99649.28
2022-12-01T13:30:52.496Z,99651.81
2022-12-01T13:33:19.071Z,99653.56
2022-12-01T13:35:45.492Z,99650.31
2022-12-01T13:38:11.942Z,99651.88
2022-12-01T13:40:39.149Z,99648.31
2022-12-01T13:43:10.354Z,99650.72
2022-12-01T13:45:37.247Z,99646.50
2022-12-01T13:48:03.628Z,99637.38
2022-12-01T13:50:30.216Z,99640.13
2022-12-01T13:52:56.631Z,99646.53
2022-12-01T13:55:23.060Z,99645.69
2022-12-01T13:57:51.475Z,99647.31
2022-12-01T14:00:17.958Z,99647.88
2022-12-01T14:02:44.487Z,99642.59
2022-12-01T14:05:11.118Z,99645.84
2022-12-01T14:07:37.677Z,99655.06
2022-12-01T14:10:04.065Z,99653.44
2022-12-01T14:12:30.648Z,99648.50
2022-12-01T14:14:57.296Z,99655.69
2022-12-01T14:17:23.947Z,99657.94
2022-12-01T14:19:50.351Z,99649.22
2022-12-01T14:22:16.700Z,99650.19
2022-12-01T14:24:43.190Z,99647.81
2022-12-01T14:27:09.569Z,99647.66
2022-12-01T14:29:36.124Z,99648.97
2022-12-01T14:32:03.686Z,99646.53
2022-12-01T14:34:30.227Z,99645.44
2022-12-01T14:36:56.653Z,99642.13
2022-12-01T14:39:23.139Z,99633.66
2022-12-01T14:41:49.509Z,99646.06
2022-12-01T14:44:16.017Z,99640.06
2022-12-01T14:46:42.557Z,99642.66
2022-12-01T14:49:09.004Z,99649.78
2022-12-01T14:51:35.491Z,99654.69
2022-12-01T14:54:02.053Z,99656.22
2022-12-01T14:56:28.770Z,99649.03
2022-12-01T14:58:55.374Z,99645.59
2022-12-01T15:01:21.887Z,99642.88
2022-12-01T15:03:48.421Z,99639.28
2022-12-01T15:06:14.814Z,99642.50
2022-12-01T15:08:49.212Z,99643.94
2022-12-01T15:11:20.139Z,99639.97
2022-12-01T15:13:46.484Z,99640.19
2022-12-01T15:16:12.893Z,99644.47
2022-12-01T15:18:39.364Z,99645.19
2022-12-01T15:21:06.036Z,99652.47
2022-12-01T15:23:32.905Z,99662.22
2022-12-01T15:25:59.369Z,99662.22
2022-12-01T15:28:25.802Z,99650.69
2022-12-01T15:30:52.183Z,99655.75
2022-12-01T15:33:24.012Z,99657.97
2022-12-01T15:35:53.223Z,99652.97
2022-12-01T15:38:19.994Z,99657.91
2022-12-01T15:43:33.314Z,99650.38
2022-12-01T15:45:59.934Z,99654.63
2022-12-01T15:48:27.990Z,99652.03
2022-12-01T15:50:54.698Z,99665.19
2022-12-01T15:53:21.069Z,99656.66
2022-12-01T15:55:47.684Z,99656.69
2022-12-01T15:58:14.334Z,99659.53
2022-12-01T16:00:41.289Z,99660.50
2022-12-01T16:03:11.949Z,99655.72
2022-12-01T16:05:38.578Z,99649.78
2022-12-01T16:08:13.041Z,99653.22
2022-12-01T16:10:40.288Z,99654.13
2022-12-01T16:13:06.874Z,99650.03
2022-12-01T16:15:33.319Z,99652.75
2022-12-01T16:17:59.819Z,99652.56
2022-12-01T16:20:26.246Z,99653.22
2022-12-01T16:22:54.675Z,99654.06
2022-12-01T16:25:21.196Z,99663.66
2022-12-01T16:27:50.308Z,99659.19
2022-12-01T16:30:16.803Z,99661.56
2022-12-01T16:32:43.631Z,99659.41
2022-12-01T16:35:11.199Z,99665.59
2022-12-01T16:37:37.671Z,99662.69
2022-12-01T16:40:04.115Z,99672.59
2022-12-01T16:42:30.638Z,99662.72
2022-12-01T16:44:57.433Z,99668.38
2022-12-01T16:47:23.997Z,99668.47
2022-12-01T16:49:50.586Z,99669.44
2022-12-01T16:52:46.065Z,99668.16
2022-12-01T16:55:03.465Z,99666.78
2022-12-01T16:57:30.022Z,99666.31
2022-12-01T16:59:56.769Z,99666.75
2022-12-01T17:02:23.847Z,99674.66
2022-12-01T17:04:50.949Z,99666.72
2022-12-01T17:07:17.775Z,99670.63
2022-12-01T17:09:44.194Z,99660.78
2022-12-01T17:12:13.888Z,99662.59
2022-12-01T17:14:40.554Z,99663.38
2022-12-01T17:17:08.138Z,99671.16
2022-12-01T17:19:34.737Z,99664.94
2022-12-01T17:22:01.744Z,99667.31
2022-12-01T17:24:28.272Z,99665.63
2022-12-01T17:26:54.801Z,99664.13
2022-12-01T17:29:21.585Z,99665.41
2022-12-01T17:31:48.236Z,99660.13
2022-12-01T17:34:14.839Z,99670.03
2022-12-01T17:36:41.476Z,99669.19
2022-12-01T17:39:08.365Z,99670.38
2022-12-01T17:41:36.277Z,99673.47
2022-12-01T17:44:02.952Z,99679.78
2022-12-01T17:46:29.456Z,99680.22
2022-12-01T17:48:56.620Z,99687.59
2022-12-01T17:51:23.903Z,99685.47
2022-12-01T17:53:50.350Z,99684.34
2022-12-01T17:56:17.182Z,99685.28
2022-12-01T17:58:44.160Z,99680.34
2022-12-01T18:01:11.957Z,99679.28
2022-12-01T18:03:38.656Z,99674.63
2022-12-01T18:06:05.216Z,99671.31
2022-12-01T18:08:33.184Z,99666.72
2022-12-01T18:11:00.032Z,99672.41
2022-12-01T18:13:27.412Z,99675.78
2022-12-01T18:15:54.121Z,99673.38
2022-12-01T18:18:20.898Z,99676.91
2022-12-01T18:20:47.313Z,99682.44
2022-12-01T18:23:13.845Z,99682.72
2022-12-01T18:25:41.114Z,99680.16
2022-12-01T18:28:08.902Z,99679.47
2022-12-01T18:30:36.941Z,99684.38
2022-12-01T18:33:03.594Z,99689.63
2022-12-01T18:35:32.039Z,99685.97
2022-12-01T18:37:59.637Z,99689.28
2022-12-01T18:40:26.326Z,99681.19
2022-12-01T18:42:52.984Z,99686.59
2022-12-01T18:45:21.660Z,99679.56
2022-12-01T18:47:48.505Z,99688.91
2022-12-01T18:50:15.430Z,99686.78
2022-12-01T18:52:42.232Z,99689.16
2022-12-01T18:55:09.336Z,99682.84
2022-12-01T18:57:36.511Z,99689.63
2022-12-01T19:00:03.512Z,99687.00
2022-12-01T19:02:30.803Z,99684.41
2022-12-01T19:04:58.075Z,99681.56
2022-12-01T19:07:29.579Z,99684.00
2022-12-01T19:09:57.526Z,99682.00
2022-12-01T19:12:24.893Z,99672.44
2022-12-01T19:14:51.523Z,99673.44
2022-12-01T19:17:18.512Z,99680.66
2022-12-01T19:19:45.409Z,99679.84
2022-12-01T19:22:12.302Z,99678.00
2022-12-01T19:24:39.629Z,99679.56
2022-12-01T19:27:14.149Z,99686.13
2022-12-01T19:29:41.041Z,99685.94
2022-12-01T19:32:08.106Z,99679.97
2022-12-01T19:34:37.681Z,99682.41
2022-12-01T19:37:06.305Z,99676.25
2022-12-01T19:39:33.245Z,99677.59
2022-12-01T19:42:00.955Z,99673.25
2022-12-01T19:44:28.895Z,99680.66
2022-12-01T19:46:55.827Z,99679.19
2022-12-01T19:49:25.683Z,99678.63
2022-12-01T19:51:52.653Z,99680.19
2022-12-01T19:54:20.076Z,99684.50
2022-12-01T19:56:46.949Z,99680.44
2022-12-01T19:59:13.875Z,99682.38
2022-12-01T20:01:41.469Z,99690.56
2022-12-01T20:04:08.253Z,99690.44
2022-12-01T20:06:35.253Z,99679.09
2022-12-01T20:09:03.374Z,99685.28
2022-12-01T20:11:30.590Z,99685.84
2022-12-01T20:13:57.680Z,99686.25
2022-12-01T20:16:25.884Z,99681.78
2022-12-01T20:18:53.363Z,99686.13
2022-12-01T20:21:21.153Z,99678.31
2022-12-01T20:23:48.043Z,99690.34
2022-12-01T20:26:15.800Z,99678.72
2022-12-01T20:28:44.824Z,99682.63
2022-12-01T20:31:11.803Z,99681.97
2022-12-01T20:33:38.801Z,99675.22
2022-12-01T20:36:08.699Z,99678.63
2022-12-01T20:38:38.013Z,99684.66
2022-12-01T20:41:06.505Z,99673.63
2022-12-01T20:43:33.646Z,99670.84
2022-12-01T20:46:00.284Z,99669.16
2022-12-01T20:48:28.542Z,99670.88
2022-12-01T20:50:55.510Z,99668.22
2022-12-01T20:53:22.565Z,99666.00
2022-12-01T20:55:49.367Z,99677.75
2022-12-01T20:58:16.499Z,99682.31
2022-12-01T21:00:43.379Z,99677.75
2022-12-01T21:03:11.381Z,99675.56
2022-12-01T21:05:38.507Z,99679.97
2022-12-01T21:08:05.077Z,99681.59
2022-12-01T21:10:32.114Z,99683.56
2022-12-01T21:12:59.836Z,99679.09
2022-12-01T21:15:26.808Z,99689.94
2022-12-01T21:17:53.784Z,99688.25
2022-12-01T21:20:20.472Z,99685.03
2022-12-01T21:22:46.946Z,99687.84
2022-12-01T21:25:14.146Z,99685.28
2022-12-01T21:27:41.247Z,99686.41
2022-12-01T21:30:08.629Z,99681.34
2022-12-01T21:32:38.718Z,99675.88
2022-12-01T21:35:08.755Z,99679.00
2022-12-01T21:37:35.811Z,99679.97
2022-12-01T21:40:02.251Z,99678.78
2022-12-01T21:42:28.650Z,99676.66
2022-12-01T21:44:55.042Z,99683.59
2022-12-01T21:47:21.437Z,99684.69
2022-12-01T21:49:47.811Z,99683.41
2022-12-01T21:52:14.212Z,99684.44
2022-12-01T21:54:42.913Z,99679.47
2022-12-01T21:57:11.850Z,99682.69
2022-12-01T21:59:40.801Z,99685.88
2022-12-01T22:02:07.255Z,99686.75
2022-12-01T22:04:33.811Z,99674.22
2022-12-01T22:07:00.251Z,99682.63
2022-12-01T22:09:26.608Z,99683.41
2022-12-01T22:11:52.970Z,99677.16
2022-12-01T22:14:21.866Z,99681.13
2022-12-01T22:16:49.869Z,99674.94
2022-12-01T22:19:16.221Z,99678.66
2022-12-01T22:21:42.619Z,99673.97
2022-12-01T22:24:09.080Z,99674.88
2022-12-01T22:26:35.704Z,99669.03
2022-12-01T22:29:02.125Z,99666.09
2022-12-01T22:31:28.626Z,99665.63
2022-12-01T22:33:58.820Z,99666.81
2022-12-01T22:36:29.294Z,99664.91
2022-12-01T22:38:55.905Z,99663.13
2022-12-01T22:41:22.403Z,99665.06
2022-12-01T22:43:48.818Z,99656.75
2022-12-01T22:46:15.316Z,99660.28
2022-12-01T22:48:44.711Z,99657.00
2022-12-01T22:51:11.210Z,99659.91
2022-12-01T22:53:37.699Z,99670.97
2022-12-01T22:56:04.167Z,99659.53
2022-12-01T22:58:30.803Z,99673.56
2022-12-01T23:00:58.139Z,99671.59
2022-12-01T23:03:24.682Z,99665.34
2022-12-01T23:05:51.530Z,99652.03
2022-12-01T23:08:19.981Z,99660.69
2022-12-01T23:10:46.557Z,99652.19
2022-12-01T23:13:12.990Z,99654.41
2022-12-01T23:15:40.937Z,99649.66
2022-12-01T23:18:09.268Z,99643.63
2022-12-01T23:20:36.616Z,99643.47
2022-12-01T23:23:03.221Z,99644.22
2022-12-01T23:25:29.799Z,99644.66
2022-12-01T23:27:56.205Z,99644.47
2022-12-01T23:30:23.087Z,99642.53
2022-12-01T23:32:49.693Z,99645.31
2022-12-01T23:35:17.377Z,99639.13
2022-12-01T23:37:46.666Z,99636.44
2022-12-01T23:40:13.111Z,99639.22
2022-12-01T23:42:40.080Z,99632.28
2022-12-01T23:45:07.408Z,99629.72
2022-12-01T23:47:34.293Z,99615.88
2022-12-01T23:50:00.731Z,99615.84
2022-12-01T23:52:27.140Z,99621.38
2022-12-01T23:54:53.662Z,99610.72
2022-12-01T23:57:20.289Z,99613.28
2022-12-01T23:59:46.640Z,99605.06
